• Join FlightAware (Why Join?)
  • Login
  • US Flag 
10:16PM EDT


 

Airport Tracker/Info


-or-


 

Live Flight TrackerFlight Track Log ✈ N171TS ✈ 22-Jul-2013 ✈ KDTW - KDPA

Flight Track Log - Related Links

Times and Time Zones

All times are in EDT time to prevent confusion due to time zone crossing. See the N171TS flight status page for this flight to view local times or setup timezone preferences in your user account.

Time Position Orientation Groundspeed Altitude Reporting Facility
EDT Latitude Longitude Course Direction KTS MPH feet Rate Location/Type
04:57PM 42.1953 -83.3636 278° West 112 129 1,000  Level Cleveland Center
04:58PM 42.1986 -83.3944 278° West 138 159 1,300 420 Climbing Cleveland Center
04:59PM 42.2014 -83.4508 274° West 144 166 1,800 660 Climbing Cleveland Center
05:00PM 42.2103 -83.5100 281° West 138 159 2,800 900 Climbing Cleveland Center
05:01PM 42.2114 -83.5464 272° West 113 130 3,600 780 Climbing Cleveland Center
05:02PM 42.2186 -83.5917 282° West 121 139 4,400 660 Climbing Cleveland Center
05:03PM 42.2217 -83.6367 275° West 133 153 5,000 600 Climbing Cleveland Center
05:04PM 42.2264 -83.6958 276° West 145 167 5,700 600 Climbing Cleveland Center
05:05PM 42.2311 -83.7467 277° West 148 170 6,300 540 Climbing Cleveland Center
05:06PM 42.2339 -83.8000 274° West 150 173 6,800 240 Climbing Cleveland Center
05:07PM 42.2383 -83.8592 276° West 162 186 6,800  Level Cleveland Center
05:09PM 42.2420 -83.9492 273° West  Level FlightAware Approximate
05:16PM 42.2501 -84.3742 270° West  Level FlightAware Approximate
05:17PM 42.2500 -84.4350 270° West  Level FlightAware Approximate
05:18PM 42.2474 -84.4956 266° West  Level FlightAware Approximate
05:19PM 42.2234 -84.5457 237° Southwest  Level FlightAware Approximate
05:20PM 42.1995 -84.5957 237° Southwest  Level FlightAware Approximate
05:21PM 42.1753 -84.6460 237° Southwest  Level FlightAware Approximate
05:22PM 42.1512 -84.6962 237° Southwest  Level FlightAware Approximate
05:23PM 42.1284 -84.7545 253° West  Level FlightAware Approximate
05:24PM 42.1152 -84.8116 253° West  Level FlightAware Approximate
05:25PM 42.1019 -84.8686 253° West  Level FlightAware Approximate
05:26PM 42.0886 -84.9257 253° West  Level FlightAware Approximate
05:27PM 42.0753 -84.9827 253° West  Level FlightAware Approximate
05:28PM 42.0619 -85.0396 252° West  Level FlightAware Approximate
05:29PM 42.0485 -85.0966 252° West  Level FlightAware Approximate
05:30PM 42.0351 -85.1535 252° West  Level FlightAware Approximate
05:31PM 42.0216 -85.2105 252° West  Level FlightAware Approximate
05:32PM 42.0082 -85.2673 252° West  Level FlightAware Approximate
05:33PM 41.9947 -85.3242 252° West  Level FlightAware Approximate
05:34PM 41.9812 -85.3811 252° West  Level FlightAware Approximate
05:35PM 41.9676 -85.4379 252° West  Level FlightAware Approximate
05:36PM 41.9540 -85.4947 252° West  Level FlightAware Approximate
05:37PM 41.9404 -85.5514 252° West  Level FlightAware Approximate
05:37PM 41.8808 -85.7983 251° West 179 206 7,900  Level Chicago Center
05:38PM 41.9268 -85.6082 252° West  Level FlightAware Approximate
05:38PM 41.8553 -85.8561 239° Southwest 180 207 7,900  Level Chicago Center
05:39PM 41.9130 -85.6648 252° West  Level FlightAware Approximate
05:39PM 41.8300 -85.9128 239° Southwest 179 206 7,900  Level Chicago Center
05:40PM 41.8989 -85.7214 252° West  Level FlightAware Approximate
05:40PM 41.8056 -85.9700 240° Southwest 179 206 7,900  Level Chicago Center
05:41PM 41.8848 -85.7779 252° West  Level FlightAware Approximate
05:41PM 41.7803 -86.0281 240° Southwest 180 207 7,900  Level Chicago Center
05:42PM 41.8707 -85.8344 251° West  Level FlightAware Approximate
05:42PM 41.7550 -86.0853 239° Southwest 180 207 7,900  Level Chicago Center
05:43PM 41.7250 -86.1539 240° Southwest 179 206 7,900  Level Chicago Center
05:44PM 41.7003 -86.2114 240° Southwest 179 206 7,900  Level Chicago Center
05:45PM 41.6747 -86.2681 239° Southwest 179 206 7,900  Level Chicago Center
05:46PM 41.6503 -86.3253 240° Southwest 179 206 7,900  Level Chicago Center
05:47PM 41.6242 -86.3833 239° Southwest 182 209 7,900  Level Chicago Center
05:49PM 41.5950 -86.4519 240° Southwest 179 206 7,900  Level Chicago Center
05:50PM 41.5700 -86.5089 240° Southwest 178 205 7,900  Level Chicago Center
05:51PM 41.5456 -86.5661 240° Southwest 177 204 7,900  Level Chicago Center
05:52PM 41.5086 -86.6075 220° Southwest 186 214 7,900  Level Chicago Center
05:53PM 41.4692 -86.6506 219° Southwest 184 212 7,900  Level Chicago Center
05:54PM 41.4300 -86.6919 218° Southwest 181 208 7,900  Level Chicago Center
05:55PM 41.3881 -86.7358 218° Southwest 183 211 7,900  Level Chicago Center
05:56PM 41.3386 -86.7825 215° Southwest 182 209 7,900  Level Chicago Center
05:57PM 41.2997 -86.8217 217° Southwest 178 205 7,900  Level Chicago Center
05:58PM 41.2622 -86.8631 220° Southwest 177 204 7,900  Level Chicago Center
05:59PM 41.2203 -86.9039 216° Southwest 183 211 7,900  Level Chicago Center
06:00PM 41.1814 -86.9472 220° Southwest 184 212 7,900  Level Chicago Center
06:01PM 41.1922 -87.0233 281° West 174 200 7,900 -120 Level Chicago Center
06:02PM 41.1972 -87.0861 276° West 172 198 7,700 -360 Descending Chicago Center
06:03PM 41.2039 -87.1528 278° West 180 207 7,200 -540 Descending Chicago Center
06:04PM 41.2117 -87.2206 279° West 186 214 6,700 -480 Descending Chicago Center
06:05PM 41.2169 -87.2878 276° West 184 212 6,300 -540 Descending Chicago Center
06:06PM 41.2278 -87.3669 280° West 183 211 5,700 -480 Descending Chicago Center
06:07PM 41.2342 -87.4331 277° West 183 211 5,300 -480 Descending Chicago Center
06:08PM 41.2408 -87.5000 278° West 183 211 4,800 -540 Descending Chicago Center
06:09PM 41.2478 -87.5664 278° West 183 211 4,300 -480 Descending Chicago Center
06:10PM 41.2544 -87.6328 278° West 183 211 3,900 -300 Descending Chicago Center
06:11PM 41.2622 -87.7092 278° West 179 206 3,800 -60 Descending Chicago Center
06:12PM 41.2686 -87.7700 278° West 174 200 3,800  Level Chicago Center
06:13PM 41.2867 -87.8242 294° West 170 196 3,800  Level Chicago Center
06:14PM 41.3144 -87.8753 306° West 171 197 3,800  Level Chicago Center
06:15PM 41.3408 -87.9267 304° West 170 196 3,800  Level Chicago Center
06:16PM 41.3728 -87.9875 305° West 169 194 3,800  Level Chicago Center
06:17PM 41.3997 -88.0378 306° West 168 193 3,800  Level Chicago Center
06:19PM 41.4233 -88.0800 307° West 167 192 3,900  Climbing Chicago Center
06:20PM 41.4539 -88.1419 303° West 166 191 3,800 -60 Descending Chicago Center
06:21PM 41.4806 -88.1919 305° West 166 191 3,800  Level Chicago Center
06:22PM 41.5078 -88.2414 306° West 166 191 3,900  Climbing Chicago Center
06:23PM 41.5342 -88.2950 303° West 171 197 3,800 -60 Descending Chicago Center
06:24PM 41.5772 -88.3206 336° Northwest 174 200 3,800  Level Chicago Center
06:25PM 41.6344 -88.3000 15° North 177 204 3,800 -120 Level Chicago Center
06:26PM 41.6836 -88.2917 North 178 205 3,600 -360 Descending Chicago Center
06:27PM 41.7358 -88.2861 North 182 209 3,100 -420 Descending Chicago Center
06:28PM 41.7864 -88.2739 10° North 188 216 2,800 -240 Descending Chicago Center
06:29PM 41.8300 -88.2394 30° Northeast 186 214 2,700 -300 Descending Chicago Center
06:30PM 41.8767 -88.2089 26° Northeast 185 213 2,200 -540 Descending Chicago Center
06:31PM 41.9333 -88.2014 North 174 200 1,700 -540 Descending Chicago Center
06:32PM 41.9261 -88.2386 255° West 145 167 1,100 -420 Descending Chicago Center
06:33PM 41.9022 -88.2503 200° South 134 154 900 -240 Descending Chicago Center